Time;durP1;ratioP1;P1;durP2;ratioP2;P2;SDS_P1;SDS_P2;PMS_P1;PMS_P2;Temp;Humidity;BMP_temperature;BMP_pressure;BME280_temperature;BME280_humidity;BME280_pressure;Samples;Min_cycle;Max_cycle;Signal;HPM_P1;HPM_P2
2023/12/21 00:02:06;;;;;;;1.80;1.27;;;10.00;99.90;;;;;;968048;145;27254;-82
2023/12/21 00:04:33;;;;;;;4.17;1.63;;;10.00;99.90;;;;;;956103;147;27325;-82
2023/12/21 00:06:59;;;;;;;1.40;1.27;;;10.00;99.90;;;;;;946185;151;27745;-82
2023/12/21 00:09:25;;;;;;;1.30;1.20;;;10.00;99.90;;;;;;911497;152;27438;-82
2023/12/21 00:11:52;;;;;;;1.30;1.20;;;10.10;99.90;;;;;;921054;151;27446;-82
2023/12/21 00:14:19;;;;;;;1.47;1.37;;;10.10;99.90;;;;;;947326;148;27285;-82
2023/12/21 00:16:45;;;;;;;1.47;1.37;;;10.10;99.90;;;;;;944500;149;27492;-82
2023/12/21 00:19:12;;;;;;;1.87;1.57;;;10.10;99.90;;;;;;944554;150;27430;-82
2023/12/21 00:21:38;;;;;;;1.53;1.43;;;10.10;99.90;;;;;;947253;148;27406;-82
2023/12/21 00:24:05;;;;;;;2.60;1.43;;;10.10;99.90;;;;;;945012;149;27359;-82
2023/12/21 00:26:32;;;;;;;3.90;1.67;;;10.10;99.90;;;;;;947789;148;27406;-82
2023/12/21 00:28:58;;;;;;;1.60;1.47;;;10.00;99.90;;;;;;946998;150;27329;-82
2023/12/21 00:31:25;;;;;;;2.97;1.53;;;10.00;99.90;;;;;;945408;149;27444;-82
2023/12/21 00:33:51;;;;;;;1.43;1.13;;;10.00;99.90;;;;;;946040;149;27402;-82
2023/12/21 00:36:18;;;;;;;1.30;1.20;;;10.00;99.90;;;;;;945757;150;27387;-82
2023/12/21 00:38:44;;;;;;;1.30;1.20;;;9.90;99.90;;;;;;945340;151;27288;-82
2023/12/21 00:41:11;;;;;;;1.30;1.30;;;9.90;99.90;;;;;;945940;150;27429;-82
2023/12/21 00:43:38;;;;;;;1.50;1.40;;;9.90;99.90;;;;;;945893;150;27345;-82
2023/12/21 00:46:04;;;;;;;1.17;1.10;;;9.90;99.90;;;;;;946695;150;27238;-82
2023/12/21 00:48:31;;;;;;;1.20;1.20;;;9.80;99.90;;;;;;945291;150;27241;-82
2023/12/21 00:50:57;;;;;;;1.20;1.13;;;9.80;99.90;;;;;;944786;150;27361;-82
2023/12/21 00:53:24;;;;;;;1.30;1.20;;;9.80;99.90;;;;;;944482;148;27334;-82
2023/12/21 00:55:51;;;;;;;1.47;1.10;;;9.80;99.90;;;;;;946782;148;27298;-82
2023/12/21 00:58:17;;;;;;;1.20;1.10;;;9.80;99.90;;;;;;944831;149;27309;-82
2023/12/21 01:00:44;;;;;;;1.00;0.90;;;9.70;99.90;;;;;;944349;148;27410;-82
2023/12/21 01:03:10;;;;;;;1.30;1.20;;;9.70;99.90;;;;;;942895;148;27347;-82
2023/12/21 01:05:37;;;;;;;2.33;1.10;;;9.70;99.90;;;;;;960456;148;27422;-83
2023/12/21 01:08:03;;;;;;;1.90;1.57;;;9.70;99.90;;;;;;966996;146;27419;-82
2023/12/21 01:10:31;;;;;;;1.00;1.00;;;9.70;99.90;;;;;;965411;146;27352;-83
2023/12/21 01:12:57;;;;;;;1.07;1.07;;;9.70;99.90;;;;;;968297;147;27329;-82
2023/12/21 01:15:23;;;;;;;1.40;1.30;;;9.70;99.90;;;;;;967525;146;27372;-85
2023/12/21 01:17:50;;;;;;;1.17;1.10;;;9.70;99.90;;;;;;966044;147;27259;-84
2023/12/21 01:20:16;;;;;;;0.93;0.93;;;9.70;99.90;;;;;;964625;147;27301;-85
2023/12/21 01:22:43;;;;;;;1.17;1.17;;;9.70;99.90;;;;;;967091;147;27394;-85
2023/12/21 01:25:10;;;;;;;1.10;1.00;;;9.70;99.90;;;;;;963736;146;27326;-85
2023/12/21 01:27:36;;;;;;;1.13;0.90;;;9.70;99.90;;;;;;963805;148;27251;-84
2023/12/21 01:30:03;;;;;;;1.03;1.03;;;9.70;99.90;;;;;;965863;146;27759;-85
2023/12/21 01:32:29;;;;;;;0.90;0.90;;;9.60;99.90;;;;;;965166;147;27245;-84
2023/12/21 01:34:56;;;;;;;1.37;1.00;;;9.70;99.90;;;;;;962754;147;27398;-84
2023/12/21 01:37:23;;;;;;;0.90;0.90;;;9.70;99.90;;;;;;964392;147;27441;-84
2023/12/21 01:39:49;;;;;;;0.70;0.70;;;9.70;99.90;;;;;;962507;146;27266;-84
2023/12/21 01:42:16;;;;;;;1.33;0.90;;;9.70;99.90;;;;;;965381;147;27391;-86
2023/12/21 01:44:42;;;;;;;1.03;1.00;;;9.70;99.90;;;;;;966748;148;27309;-85
2023/12/21 01:47:09;;;;;;;0.90;0.90;;;9.70;99.90;;;;;;966999;146;28457;-84
2023/12/21 01:49:35;;;;;;;0.90;0.90;;;9.80;99.90;;;;;;921177;152;27438;-85
2023/12/21 01:52:02;;;;;;;0.60;0.60;;;9.80;99.90;;;;;;922753;153;27379;-84
2023/12/21 01:54:29;;;;;;;0.90;0.90;;;9.80;99.90;;;;;;933702;152;27365;-84
2023/12/21 01:56:55;;;;;;;0.80;0.80;;;9.80;99.90;;;;;;934358;152;27369;-85
2023/12/21 01:59:22;;;;;;;0.70;0.70;;;9.80;99.90;;;;;;931824;151;27923;-84
2023/12/21 02:01:48;;;;;;;1.00;0.90;;;9.80;99.90;;;;;;939079;152;27302;-85
2023/12/21 02:04:15;;;;;;;2.50;1.00;;;9.80;99.90;;;;;;938540;152;27330;-84
2023/12/21 02:06:42;;;;;;;0.70;0.70;;;9.80;99.90;;;;;;936453;151;27474;-85
2023/12/21 02:09:08;;;;;;;0.90;0.90;;;9.80;99.90;;;;;;934896;153;27396;-85
2023/12/21 02:11:35;;;;;;;0.70;0.70;;;9.80;99.90;;;;;;929192;153;27334;-84
2023/12/21 02:14:01;;;;;;;1.17;1.07;;;9.80;99.90;;;;;;947268;149;27315;-84
2023/12/21 02:16:31;;;;;;;0.90;0.90;;;9.80;99.90;;;;;;929253;149;27372;-83
2023/12/21 02:18:57;;;;;;;1.00;0.90;;;9.80;99.90;;;;;;929763;150;27454;-82
2023/12/21 02:21:24;;;;;;;1.10;1.00;;;9.80;99.90;;;;;;936895;150;27368;-81
2023/12/21 02:23:50;;;;;;;0.97;0.70;;;9.80;99.90;;;;;;950495;148;27379;-82
2023/12/21 02:26:18;;;;;;;1.10;1.00;;;9.80;99.90;;;;;;951020;150;27408;-83
2023/12/21 02:28:43;;;;;;;0.80;0.80;;;9.80;99.90;;;;;;951112;149;27421;-80
2023/12/21 02:31:10;;;;;;;1.80;0.80;;;9.80;99.90;;;;;;950695;150;27316;-81
2023/12/21 02:33:37;;;;;;;0.80;0.80;;;9.80;99.90;;;;;;949719;150;27419;-81
2023/12/21 02:36:03;;;;;;;0.60;0.60;;;9.80;99.90;;;;;;950185;148;27401;-82
2023/12/21 02:38:31;;;;;;;0.73;0.70;;;9.80;99.90;;;;;;950461;149;27427;-83
2023/12/21 02:40:58;;;;;;;0.60;0.60;;;9.80;99.90;;;;;;950254;150;27490;-81
2023/12/21 02:43:23;;;;;;;0.70;0.70;;;9.90;99.90;;;;;;948560;148;27381;-81
2023/12/21 02:45:50;;;;;;;0.90;0.90;;;9.90;99.90;;;;;;950550;148;27293;-81
2023/12/21 02:48:16;;;;;;;0.67;0.60;;;9.90;99.90;;;;;;926813;153;27400;-82
2023/12/21 02:50:43;;;;;;;0.60;0.60;;;9.90;99.90;;;;;;934651;151;27360;-81
2023/12/21 02:53:09;;;;;;;0.70;0.70;;;9.90;99.90;;;;;;933478;153;27443;-81
2023/12/21 02:55:36;;;;;;;0.63;0.63;;;10.00;99.90;;;;;;951365;149;27274;-80
2023/12/21 02:58:02;;;;;;;0.70;0.70;;;10.00;99.90;;;;;;950867;148;27754;-82
2023/12/21 03:00:29;;;;;;;0.60;0.60;;;10.00;99.90;;;;;;927758;154;27354;-81
2023/12/21 03:02:56;;;;;;;0.60;0.60;;;10.00;99.90;;;;;;950788;150;27319;-81
2023/12/21 03:05:22;;;;;;;0.50;0.50;;;10.10;99.90;;;;;;950185;148;27340;-81
2023/12/21 03:07:49;;;;;;;0.53;0.53;;;10.10;99.90;;;;;;928517;152;27312;-82
2023/12/21 03:10:15;;;;;;;1.33;0.90;;;10.10;99.90;;;;;;972496;146;27250;-83
2023/12/21 03:12:42;;;;;;;1.07;0.73;;;10.10;99.90;;;;;;969718;146;27410;-81
2023/12/21 03:15:09;;;;;;;0.63;0.63;;;10.10;99.90;;;;;;968639;146;27242;-81
2023/12/21 03:17:35;;;;;;;0.60;0.60;;;10.10;99.90;;;;;;968611;146;27314;-80
2023/12/21 03:20:03;;;;;;;0.90;0.50;;;10.10;99.90;;;;;;967604;146;27275;-81
2023/12/21 03:22:28;;;;;;;0.60;0.60;;;10.10;99.90;;;;;;968703;146;27413;-81
2023/12/21 03:24:55;;;;;;;0.53;0.53;;;10.10;99.90;;;;;;969238;145;27293;-81
2023/12/21 03:27:22;;;;;;;0.50;0.50;;;10.10;99.90;;;;;;972279;145;27293;-82
2023/12/21 03:29:48;;;;;;;0.40;0.40;;;10.10;99.90;;;;;;970994;146;27250;-82
2023/12/21 03:32:15;;;;;;;0.67;0.60;;;10.10;99.90;;;;;;973242;146;27401;-82
2023/12/21 03:34:41;;;;;;;0.73;0.70;;;10.10;99.90;;;;;;974899;146;27321;-82
2023/12/21 03:37:08;;;;;;;0.63;0.63;;;10.10;99.90;;;;;;973074;145;27234;-82
2023/12/21 03:39:34;;;;;;;0.70;0.70;;;10.20;99.90;;;;;;972308;147;27373;-82
2023/12/21 03:42:02;;;;;;;0.70;0.70;;;10.20;99.90;;;;;;930008;154;27355;-82
2023/12/21 03:44:28;;;;;;;0.63;0.63;;;10.20;99.90;;;;;;972085;147;27398;-81
2023/12/21 03:46:54;;;;;;;0.73;0.73;;;10.20;99.90;;;;;;972794;147;28367;-82
2023/12/21 03:49:21;;;;;;;2.00;0.63;;;10.20;99.90;;;;;;972226;145;27414;-82
2023/12/21 03:51:47;;;;;;;0.70;0.70;;;10.20;99.90;;;;;;971716;146;27349;-82
2023/12/21 03:54:14;;;;;;;0.53;0.53;;;10.20;99.90;;;;;;967832;145;27415;-82
2023/12/21 03:56:41;;;;;;;0.40;0.40;;;10.20;99.90;;;;;;971084;146;27332;-82
2023/12/21 03:59:07;;;;;;;1.07;0.50;;;10.20;99.90;;;;;;972115;146;27282;-82
2023/12/21 04:01:34;;;;;;;0.90;0.57;;;10.30;99.90;;;;;;965850;146;27416;-82
2023/12/21 04:04:00;;;;;;;0.40;0.40;;;10.30;99.90;;;;;;967498;146;27397;-82
2023/12/21 04:06:27;;;;;;;0.40;0.40;;;10.30;99.90;;;;;;969766;147;27350;-82
2023/12/21 04:08:54;;;;;;;0.40;0.40;;;10.30;99.90;;;;;;974582;146;27370;-82
2023/12/21 04:11:20;;;;;;;0.67;0.67;;;10.40;99.90;;;;;;973920;146;27357;-82
2023/12/21 04:13:47;;;;;;;0.60;0.57;;;10.40;99.90;;;;;;974570;146;27371;-82
2023/12/21 04:16:13;;;;;;;0.93;0.93;;;10.40;99.90;;;;;;974227;145;27327;-82
2023/12/21 04:18:40;;;;;;;0.57;0.57;;;10.50;99.90;;;;;;974831;147;27325;-82
2023/12/21 04:21:06;;;;;;;1.23;0.50;;;10.50;99.90;;;;;;974597;146;27327;-82
2023/12/21 04:23:33;;;;;;;0.30;0.30;;;10.50;99.90;;;;;;973620;145;27267;-82
2023/12/21 04:26:00;;;;;;;0.43;0.40;;;10.50;99.90;;;;;;964877;147;27326;-82
2023/12/21 04:28:26;;;;;;;0.43;0.43;;;10.60;99.90;;;;;;964069;147;27313;-82
2023/12/21 04:30:53;;;;;;;0.40;0.40;;;10.60;99.90;;;;;;967510;145;27375;-82
2023/12/21 04:33:19;;;;;;;0.50;0.50;;;10.60;99.90;;;;;;968517;146;27286;-82
2023/12/21 04:35:46;;;;;;;0.60;0.60;;;10.60;99.90;;;;;;968576;147;27280;-82
2023/12/21 04:38:13;;;;;;;0.50;0.50;;;10.70;99.90;;;;;;968703;147;27326;-82
2023/12/21 04:40:39;;;;;;;0.60;0.60;;;10.70;99.90;;;;;;968976;146;28461;-82
2023/12/21 04:43:06;;;;;;;0.50;0.50;;;10.70;99.90;;;;;;969026;148;27278;-82
2023/12/21 04:45:32;;;;;;;0.40;0.40;;;10.70;99.90;;;;;;968419;147;27349;-82
2023/12/21 04:47:59;;;;;;;0.53;0.53;;;10.80;99.90;;;;;;968776;146;27320;-82
2023/12/21 04:50:28;;;;;;;0.50;0.50;;;10.80;99.90;;;;;;968082;147;27317;-82
2023/12/21 04:52:53;;;;;;;2.30;0.53;;;10.80;99.90;;;;;;968517;147;27282;-82
2023/12/21 04:55:19;;;;;;;0.47;0.47;;;10.80;99.90;;;;;;967373;147;27266;-82
2023/12/21 04:57:45;;;;;;;0.93;0.50;;;10.80;99.90;;;;;;969267;147;27344;-82
2023/12/21 05:00:12;;;;;;;0.20;0.20;;;10.80;99.90;;;;;;968318;146;27405;-82
2023/12/21 05:02:38;;;;;;;0.30;0.30;;;10.80;99.90;;;;;;968578;148;27326;-81
2023/12/21 05:05:05;;;;;;;0.20;0.20;;;10.80;99.90;;;;;;969158;146;27286;-82
2023/12/21 05:07:32;;;;;;;0.40;0.40;;;10.80;99.90;;;;;;971212;146;27345;-81
2023/12/21 05:09:59;;;;;;;0.50;0.50;;;10.90;99.90;;;;;;966709;145;27353;-81
2023/12/21 05:12:25;;;;;;;0.40;0.40;;;10.90;99.90;;;;;;964875;147;27326;-81
2023/12/21 05:14:51;;;;;;;0.40;0.40;;;10.90;99.90;;;;;;963905;146;27227;-81
2023/12/21 05:17:18;;;;;;;0.47;0.40;;;10.90;99.90;;;;;;964310;146;27280;-82
2023/12/21 05:19:46;;;;;;;0.37;0.37;;;10.90;99.90;;;;;;966680;146;27262;-82
2023/12/21 05:22:11;;;;;;;0.30;0.30;;;10.90;99.90;;;;;;968425;145;27447;-82
2023/12/21 05:24:38;;;;;;;0.37;0.37;;;10.90;99.90;;;;;;968754;145;27249;-82
2023/12/21 05:27:04;;;;;;;0.40;0.40;;;10.90;99.90;;;;;;964059;147;27855;-82
2023/12/21 05:29:31;;;;;;;0.43;0.30;;;10.90;99.90;;;;;;963631;148;27382;-81
2023/12/21 05:31:58;;;;;;;0.40;0.40;;;11.00;99.90;;;;;;962660;148;27400;-82
2023/12/21 05:34:24;;;;;;;0.50;0.50;;;11.00;99.90;;;;;;962077;148;27318;-81
2023/12/21 05:36:51;;;;;;;0.70;0.47;;;11.00;99.90;;;;;;963515;145;27265;-82
2023/12/21 05:39:18;;;;;;;0.33;0.33;;;11.00;99.90;;;;;;919390;156;27312;-82
2023/12/21 05:41:44;;;;;;;0.30;0.30;;;11.00;99.90;;;;;;963524;145;27302;-81
2023/12/21 05:44:10;;;;;;;0.40;0.40;;;11.00;99.90;;;;;;963734;146;27680;-82
2023/12/21 05:46:39;;;;;;;0.30;0.30;;;11.00;99.90;;;;;;963489;147;27263;-81
2023/12/21 05:49:04;;;;;;;0.40;0.40;;;11.00;99.90;;;;;;963824;147;27390;-86
2023/12/21 05:51:31;;;;;;;0.50;0.50;;;11.00;99.90;;;;;;963111;148;27327;-83
2023/12/21 05:53:57;;;;;;;0.50;0.50;;;11.00;99.90;;;;;;964251;148;27331;-84
2023/12/21 05:56:23;;;;;;;0.40;0.40;;;11.00;99.90;;;;;;962990;148;27860;-85
2023/12/21 05:58:50;;;;;;;0.50;0.50;;;11.10;99.90;;;;;;963049;146;27301;-84
2023/12/21 06:01:17;;;;;;;0.30;0.30;;;11.10;99.90;;;;;;962753;146;27344;-84
2023/12/21 06:03:43;;;;;;;0.50;0.50;;;11.10;99.90;;;;;;963549;146;27322;-84
2023/12/21 06:06:10;;;;;;;0.23;0.23;;;11.10;99.90;;;;;;963586;146;27436;-86
2023/12/21 06:08:36;;;;;;;0.40;0.40;;;11.10;99.90;;;;;;962694;146;27361;-85
2023/12/21 06:11:03;;;;;;;0.40;0.40;;;11.10;99.90;;;;;;961936;146;27315;-85
2023/12/21 06:13:30;;;;;;;0.30;0.30;;;11.10;99.90;;;;;;963549;148;27378;-84
2023/12/21 06:15:56;;;;;;;0.33;0.30;;;11.10;99.90;;;;;;964765;146;27424;-85
2023/12/21 06:18:23;;;;;;;0.30;0.30;;;11.10;99.90;;;;;;963450;146;27335;-85
2023/12/21 06:20:49;;;;;;;1.07;0.50;;;11.10;99.90;;;;;;963588;146;27263;-84
2023/12/21 06:23:16;;;;;;;0.30;0.30;;;11.10;99.90;;;;;;963740;146;27226;-84
2023/12/21 06:25:42;;;;;;;0.40;0.40;;;11.10;99.90;;;;;;965092;146;27263;-84
2023/12/21 06:28:09;;;;;;;0.50;0.50;;;11.10;99.90;;;;;;963067;146;27329;-85
2023/12/21 06:30:36;;;;;;;0.30;0.30;;;11.10;99.90;;;;;;961182;147;27247;-84
2023/12/21 06:33:02;;;;;;;0.30;0.30;;;11.10;99.90;;;;;;964261;146;27341;-84
2023/12/21 06:35:29;;;;;;;0.30;0.30;;;11.20;99.90;;;;;;963598;146;27366;-85
2023/12/21 06:37:55;;;;;;;0.40;0.40;;;11.20;99.90;;;;;;963732;146;27337;-84
2023/12/21 06:40:22;;;;;;;1.20;0.50;;;11.20;99.90;;;;;;963239;146;27426;-85
2023/12/21 06:42:49;;;;;;;0.40;0.40;;;11.30;99.90;;;;;;962686;147;27390;-85
2023/12/21 06:45:15;;;;;;;0.47;0.40;;;11.30;99.90;;;;;;964456;147;27256;-85
2023/12/21 06:47:42;;;;;;;0.50;0.50;;;11.30;99.90;;;;;;964108;146;27298;-84
2023/12/21 06:50:09;;;;;;;0.20;0.20;;;11.30;99.90;;;;;;931380;149;27388;-84
2023/12/21 06:52:35;;;;;;;1.90;1.00;;;11.30;99.90;;;;;;934595;151;27301;-86
2023/12/21 06:55:02;;;;;;;0.40;0.40;;;11.40;99.90;;;;;;968302;146;27285;-86
2023/12/21 06:57:29;;;;;;;0.40;0.40;;;11.40;99.90;;;;;;966727;146;27336;-85
2023/12/21 06:59:55;;;;;;;0.68;0.68;;;11.40;99.90;;;;;;964383;146;27303;-84
2023/12/21 07:02:21;;;;;;;0.40;0.40;;;11.40;99.90;;;;;;964003;146;27333;-86
2023/12/21 07:04:48;;;;;;;0.40;0.40;;;11.40;99.90;;;;;;962322;146;27273;-85
2023/12/21 07:07:15;;;;;;;0.73;0.53;;;11.40;99.90;;;;;;963644;148;27782;-86
2023/12/21 07:09:41;;;;;;;0.40;0.40;;;11.50;99.90;;;;;;963998;147;27442;-86
2023/12/21 07:12:08;;;;;;;0.50;0.50;;;11.50;99.90;;;;;;964053;147;27399;-85
2023/12/21 07:14:35;;;;;;;0.23;0.23;;;11.50;99.90;;;;;;964789;146;27233;-85
2023/12/21 07:17:01;;;;;;;0.40;0.40;;;11.50;99.90;;;;;;966717;147;27251;-84
2023/12/21 07:19:28;;;;;;;0.30;0.30;;;11.40;99.90;;;;;;966104;147;27293;-85
2023/12/21 07:21:54;;;;;;;0.40;0.40;;;11.40;99.90;;;;;;966522;147;27321;-85
2023/12/21 07:24:21;;;;;;;0.60;0.60;;;11.40;99.90;;;;;;965530;146;28334;-83
2023/12/21 07:26:47;;;;;;;0.30;0.30;;;11.40;99.90;;;;;;964160;147;27355;-83
2023/12/21 07:29:14;;;;;;;0.43;0.43;;;11.40;99.90;;;;;;965925;147;27278;-83
2023/12/21 07:31:40;;;;;;;0.63;0.57;;;11.40;99.90;;;;;;964919;147;27330;-83
2023/12/21 07:34:07;;;;;;;0.77;0.50;;;11.30;99.90;;;;;;966550;146;27330;-83
2023/12/21 07:36:34;;;;;;;0.83;0.60;;;11.40;99.90;;;;;;964588;147;27311;-83
2023/12/21 07:39:00;;;;;;;0.40;0.40;;;11.40;99.90;;;;;;964661;147;27251;-83
2023/12/21 07:41:27;;;;;;;0.30;0.30;;;11.40;99.90;;;;;;964026;147;27240;-83
2023/12/21 07:43:54;;;;;;;0.50;0.50;;;11.40;99.90;;;;;;965187;147;27321;-83
2023/12/21 07:46:21;;;;;;;0.87;0.40;;;11.50;99.90;;;;;;966724;145;27318;-83
2023/12/21 07:48:47;;;;;;;0.40;0.40;;;11.50;99.90;;;;;;965166;147;27222;-83
2023/12/21 07:51:14;;;;;;;0.50;0.50;;;11.50;99.90;;;;;;964940;146;27289;-83
2023/12/21 07:53:40;;;;;;;0.70;0.70;;;11.50;99.90;;;;;;963358;147;27346;-83
2023/12/21 07:56:06;;;;;;;0.50;0.50;;;11.60;99.90;;;;;;967162;147;27349;-83
2023/12/21 07:58:33;;;;;;;0.40;0.40;;;11.60;99.90;;;;;;965947;147;27338;-83
2023/12/21 08:01:00;;;;;;;0.97;0.43;;;11.60;99.90;;;;;;966319;146;27271;-83
2023/12/21 08:03:26;;;;;;;0.30;0.30;;;11.60;99.90;;;;;;966697;146;27277;-83
2023/12/21 08:05:53;;;;;;;2.50;2.30;;;11.60;99.90;;;;;;965729;146;27406;-83
2023/12/21 08:08:19;;;;;;;0.80;0.80;;;11.70;99.90;;;;;;965094;147;27454;-83
2023/12/21 08:10:46;;;;;;;0.68;0.68;;;11.70;99.90;;;;;;965923;147;27334;-83
2023/12/21 08:13:15;;;;;;;0.63;0.60;;;11.70;99.90;;;;;;965228;147;27310;-83
2023/12/21 08:15:39;;;;;;;0.40;0.40;;;11.70;99.90;;;;;;964727;146;27413;-83
2023/12/21 08:18:06;;;;;;;2.10;0.60;;;11.70;99.90;;;;;;966058;147;27336;-83
2023/12/21 08:20:36;;;;;;;0.80;0.40;;;11.70;99.90;;;;;;965420;148;27382;-83
2023/12/21 08:23:02;;;;;;;0.60;0.60;;;11.80;99.90;;;;;;963418;147;27278;-83
2023/12/21 08:25:26;;;;;;;0.30;0.30;;;11.80;99.90;;;;;;966228;146;27267;-84
2023/12/21 08:27:53;;;;;;;0.77;0.50;;;11.80;99.90;;;;;;966289;146;27329;-84
2023/12/21 08:30:20;;;;;;;0.30;0.30;;;11.80;99.90;;;;;;964678;147;27302;-83
2023/12/21 08:32:45;;;;;;;0.40;0.40;;;11.80;99.90;;;;;;964162;148;27230;-84
2023/12/21 08:35:12;;;;;;;0.37;0.37;;;11.80;99.90;;;;;;966395;146;27294;-83
2023/12/21 08:37:38;;;;;;;0.37;0.37;;;11.80;99.90;;;;;;965550;148;27400;-83
2023/12/21 08:40:05;;;;;;;0.37;0.37;;;11.80;99.90;;;;;;965129;148;27317;-83
2023/12/21 08:42:32;;;;;;;0.20;0.20;;;11.80;99.90;;;;;;963996;148;27581;-83
2023/12/21 08:44:59;;;;;;;0.50;0.50;;;11.70;99.90;;;;;;965255;146;27379;-83
2023/12/21 08:47:25;;;;;;;0.33;0.33;;;11.70;99.90;;;;;;964232;147;27270;-83
2023/12/21 08:49:52;;;;;;;0.40;0.40;;;11.70;99.90;;;;;;964826;146;27318;-84
2023/12/21 08:52:18;;;;;;;0.30;0.30;;;11.60;99.90;;;;;;964187;146;27298;-83
2023/12/21 08:54:45;;;;;;;0.50;0.50;;;11.60;99.90;;;;;;964507;146;27254;-83
2023/12/21 08:57:11;;;;;;;0.30;0.30;;;11.60;99.90;;;;;;965315;147;27338;-83
2023/12/21 08:59:38;;;;;;;0.40;0.40;;;11.50;99.90;;;;;;964417;148;27428;-83
2023/12/21 09:02:05;;;;;;;0.30;0.30;;;11.50;99.90;;;;;;966691;147;27355;-82
2023/12/21 09:04:31;;;;;;;0.30;0.30;;;11.50;99.90;;;;;;963735;146;27235;-82
2023/12/21 09:06:58;;;;;;;0.40;0.40;;;11.40;99.90;;;;;;967375;147;27254;-82
2023/12/21 09:09:24;;;;;;;0.30;0.30;;;11.40;99.90;;;;;;965620;146;27355;-82
2023/12/21 09:11:51;;;;;;;0.40;0.40;;;11.30;99.90;;;;;;967050;146;27326;-82
2023/12/21 09:14:17;;;;;;;0.40;0.40;;;11.30;99.90;;;;;;966457;146;27302;-82
2023/12/21 09:16:44;;;;;;;0.30;0.30;;;11.30;99.90;;;;;;966376;147;27361;-83
2023/12/21 09:19:11;;;;;;;0.40;0.40;;;11.30;99.90;;;;;;966105;146;27672;-84
2023/12/21 09:21:37;;;;;;;0.70;0.50;;;11.20;99.90;;;;;;964613;146;27313;-85
2023/12/21 09:24:04;;;;;;;0.53;0.53;;;11.20;99.90;;;;;;920476;154;27307;-84
2023/12/21 09:26:30;;;;;;;0.50;0.50;;;11.20;99.90;;;;;;924962;151;27314;-85
2023/12/21 09:28:57;;;;;;;0.40;0.40;;;11.20;99.90;;;;;;966348;146;27836;-84
2023/12/21 09:31:24;;;;;;;0.40;0.40;;;11.10;99.90;;;;;;967162;146;27365;-84
2023/12/21 09:33:50;;;;;;;0.37;0.37;;;11.10;99.90;;;;;;965632;146;27318;-85
2023/12/21 09:36:17;;;;;;;0.40;0.40;;;11.10;99.90;;;;;;968102;146;27276;-85
2023/12/21 09:38:44;;;;;;;0.30;0.30;;;11.10;99.90;;;;;;965193;145;27291;-84
2023/12/21 09:41:10;;;;;;;0.40;0.40;;;11.10;99.90;;;;;;968300;147;27402;-84
2023/12/21 09:43:37;;;;;;;0.53;0.40;;;11.10;99.90;;;;;;966681;147;27337;-85
2023/12/21 09:46:03;;;;;;;0.30;0.30;;;11.10;99.90;;;;;;966748;147;27377;-84
2023/12/21 09:48:30;;;;;;;2.00;0.50;;;11.10;99.90;;;;;;967541;146;27251;-84
2023/12/21 09:50:56;;;;;;;0.70;0.70;;;11.10;99.90;;;;;;968408;147;27721;-84
2023/12/21 09:53:23;;;;;;;0.40;0.40;;;11.10;99.90;;;;;;967016;147;27331;-85
2023/12/21 09:55:49;;;;;;;0.50;0.50;;;11.10;99.90;;;;;;967810;145;27320;-86
2023/12/21 09:58:16;;;;;;;0.47;0.47;;;11.20;99.90;;;;;;969026;147;27323;-84
2023/12/21 10:00:43;;;;;;;0.40;0.40;;;11.20;99.90;;;;;;968922;146;27273;-82
2023/12/21 10:03:09;;;;;;;0.40;0.40;;;11.20;99.90;;;;;;967947;146;27262;-82
2023/12/21 10:05:36;;;;;;;0.60;0.60;;;11.30;99.90;;;;;;968551;148;27313;-83
2023/12/21 10:08:02;;;;;;;0.40;0.40;;;11.30;99.90;;;;;;968063;145;28270;-83
2023/12/21 10:10:29;;;;;;;0.43;0.43;;;11.30;99.90;;;;;;967313;145;27300;-82
2023/12/21 10:12:56;;;;;;;0.57;0.57;;;11.30;99.90;;;;;;968718;145;27285;-82
2023/12/21 10:15:22;;;;;;;0.33;0.30;;;11.30;99.90;;;;;;967516;147;27411;-82
2023/12/21 10:17:49;;;;;;;0.37;0.37;;;11.40;99.90;;;;;;967703;147;27835;-83
2023/12/21 10:20:15;;;;;;;0.40;0.40;;;11.40;99.90;;;;;;968844;147;27295;-83
2023/12/21 10:22:43;;;;;;;0.40;0.40;;;11.40;99.90;;;;;;969373;146;27252;-82
2023/12/21 10:25:08;;;;;;;2.67;2.20;;;11.50;99.90;;;;;;968425;147;27366;-82
2023/12/21 10:27:35;;;;;;;1.73;1.63;;;11.50;99.90;;;;;;968402;147;27402;-82
2023/12/21 10:30:02;;;;;;;3.63;2.40;;;11.60;99.90;;;;;;967989;148;27276;-83
2023/12/21 10:32:28;;;;;;;2.10;1.83;;;11.60;99.90;;;;;;968681;146;27314;-83
2023/12/21 10:34:58;;;;;;;3.87;2.33;;;11.60;99.90;;;;;;968843;147;27305;-83
2023/12/21 10:37:22;;;;;;;4.00;2.50;;;11.70;99.90;;;;;;968149;147;27325;-83
2023/12/21 10:39:48;;;;;;;2.83;1.87;;;11.70;99.90;;;;;;968838;148;28735;-83
2023/12/21 10:42:15;;;;;;;2.97;1.50;;;11.70;99.90;;;;;;968977;147;27231;-83
2023/12/21 10:44:44;;;;;;;1.53;1.43;;;11.70;99.90;;;;;;968563;147;27293;-82
2023/12/21 10:47:11;;;;;;;1.12;1.02;;;11.80;99.90;;;;;;967673;147;27418;-83
2023/12/21 10:49:37;;;;;;;1.47;1.30;;;11.80;99.90;;;;;;968255;147;27302;-83
2023/12/21 10:52:04;;;;;;;1.40;1.30;;;11.80;99.90;;;;;;968400;148;27428;-83
2023/12/21 10:54:30;;;;;;;1.00;1.00;;;11.80;99.90;;;;;;967816;146;27257;-82
2023/12/21 10:56:57;;;;;;;0.67;0.67;;;11.90;99.90;;;;;;967019;148;27747;-82
2023/12/21 10:59:23;;;;;;;0.60;0.60;;;11.90;99.90;;;;;;969112;145;27397;-83
2023/12/21 11:01:50;;;;;;;1.17;0.90;;;11.90;99.90;;;;;;968937;147;27317;-83
2023/12/21 11:04:17;;;;;;;0.57;0.57;;;11.80;99.90;;;;;;968419;146;27228;-83
2023/12/21 11:06:43;;;;;;;0.60;0.60;;;11.80;99.90;;;;;;968315;147;27333;-83
2023/12/21 11:09:10;;;;;;;0.60;0.60;;;11.80;99.90;;;;;;968649;147;27376;-83
2023/12/21 11:11:36;;;;;;;1.53;0.90;;;11.80;99.90;;;;;;966146;146;27355;-82
2023/12/21 11:14:03;;;;;;;1.43;0.50;;;11.80;99.90;;;;;;962471;146;27329;-83
2023/12/21 11:16:30;;;;;;;0.40;0.40;;;11.80;99.90;;;;;;962649;148;27320;-82
2023/12/21 11:18:56;;;;;;;0.33;0.33;;;11.80;99.90;;;;;;926877;151;27324;-83
2023/12/21 11:21:24;;;;;;;0.63;0.47;;;11.70;99.90;;;;;;963647;145;27323;-82
2023/12/21 11:23:50;;;;;;;0.70;0.70;;;11.70;99.90;;;;;;919084;155;28185;-82
2023/12/21 11:26:25;;;;;;;0.30;0.30;;;11.70;99.90;;;;;;962471;147;27367;-83
2023/12/21 11:28:49;;;;;;;0.40;0.40;;;11.70;99.90;;;;;;962953;146;27313;-82
2023/12/21 11:31:15;;;;;;;0.40;0.30;;;11.70;99.90;;;;;;963451;145;27318;-82
2023/12/21 11:33:42;;;;;;;0.90;0.57;;;11.70;99.90;;;;;;962242;148;27407;-83
2023/12/21 11:36:08;;;;;;;0.80;0.80;;;11.80;99.90;;;;;;963813;146;27899;-87
2023/12/21 11:38:47;;;;;;;0.50;0.50;;;11.80;99.90;;;;;;962796;145;27261;-83
2023/12/21 11:41:16;;;;;;;0.70;0.67;;;11.80;99.90;;;;;;964463;145;27384;-83
2023/12/21 11:44:01;;;;;;;0.60;0.60;;;11.80;99.90;;;;;;964115;146;27430;-83
2023/12/21 11:46:27;;;;;;;0.77;0.50;;;11.80;99.90;;;;;;919468;154;27324;-83
2023/12/21 11:48:54;;;;;;;0.40;0.40;;;11.80;99.90;;;;;;962961;146;27302;-83
2023/12/21 11:51:21;;;;;;;0.30;0.30;;;11.80;99.90;;;;;;964453;146;27385;-83
2023/12/21 11:53:47;;;;;;;0.40;0.40;;;11.80;99.90;;;;;;962964;146;27331;-83
2023/12/21 11:56:17;;;;;;;0.50;0.50;;;11.80;99.90;;;;;;964759;146;27305;-83
2023/12/21 11:58:46;;;;;;;0.40;0.40;;;11.80;99.90;;;;;;964763;146;27254;-84
2023/12/21 12:01:25;;;;;;;0.63;0.53;;;11.80;99.90;;;;;;961066;146;27345;-83
2023/12/21 12:03:51;;;;;;;0.50;0.50;;;11.80;99.90;;;;;;956608;149;27415;-82
2023/12/21 12:06:17;;;;;;;0.63;0.60;;;11.80;99.90;;;;;;960204;148;27263;-83
2023/12/21 12:08:44;;;;;;;0.40;0.40;;;11.80;99.90;;;;;;963850;147;27702;-83
2023/12/21 12:11:11;;;;;;;0.60;0.60;;;11.80;99.90;;;;;;964879;147;27723;-83
2023/12/21 12:13:37;;;;;;;0.80;0.80;;;11.90;99.90;;;;;;962832;146;27342;-83
2023/12/21 12:16:04;;;;;;;1.15;1.02;;;11.90;99.90;;;;;;963867;147;28193;-83
2023/12/21 12:18:30;;;;;;;1.30;1.23;;;11.90;99.90;;;;;;963046;147;27402;-83
2023/12/21 12:21:00;;;;;;;2.73;0.97;;;11.90;99.90;;;;;;962932;147;27247;-83
2023/12/21 12:23:23;;;;;;;0.90;0.90;;;11.90;99.90;;;;;;919702;155;27366;-82
2023/12/21 12:25:50;;;;;;;0.53;0.50;;;11.90;99.90;;;;;;965748;146;27418;-83
2023/12/21 12:28:17;;;;;;;1.63;0.57;;;11.90;99.90;;;;;;963624;146;27711;-83
2023/12/21 12:30:43;;;;;;;0.70;0.70;;;11.90;99.90;;;;;;963970;148;27259;-83
2023/12/21 12:33:10;;;;;;;0.43;0.43;;;11.90;99.90;;;;;;964313;146;27779;-83
2023/12/21 12:35:40;;;;;;;0.55;0.55;;;12.00;99.90;;;;;;963067;146;27318;-83
2023/12/21 12:38:06;;;;;;;0.60;0.60;;;12.00;99.90;;;;;;963648;147;27255;-82
2023/12/21 12:40:32;;;;;;;1.10;1.10;;;12.00;99.90;;;;;;963189;147;27335;-83
2023/12/21 12:42:59;;;;;;;0.68;0.68;;;12.00;99.90;;;;;;962535;147;27363;-83
2023/12/21 12:45:26;;;;;;;0.83;0.80;;;12.00;99.90;;;;;;963599;147;27310;-83